sensor_id;sensor_type;location;lat;lon;timestamp;pressure;altitude;pressure_sealevel;temperature;humidity
35649;BME280;21768;48.562;13.414;2023-01-31T00:00:46;97691.47;;;4.85;67.43
35649;BME280;21768;48.562;13.414;2023-01-31T00:03:11;97683.38;;;4.88;67.21
35649;BME280;21768;48.562;13.414;2023-01-31T00:05:36;97672.50;;;4.87;67.09
35649;BME280;21768;48.562;13.414;2023-01-31T00:08:02;97680.75;;;4.86;67.16
35649;BME280;21768;48.562;13.414;2023-01-31T00:10:27;97696.47;;;4.85;67.14
35649;BME280;21768;48.562;13.414;2023-01-31T00:12:53;97691.75;;;4.88;67.08
35649;BME280;21768;48.562;13.414;2023-01-31T00:15:18;97687.50;;;4.87;66.90
35649;BME280;21768;48.562;13.414;2023-01-31T00:17:43;97685.00;;;4.87;67.01
35649;BME280;21768;48.562;13.414;2023-01-31T00:20:10;97679.72;;;4.84;66.91
35649;BME280;21768;48.562;13.414;2023-01-31T00:22:36;97703.97;;;4.85;67.06
35649;BME280;21768;48.562;13.414;2023-01-31T00:25:01;97698.25;;;4.86;66.88
35649;BME280;21768;48.562;13.414;2023-01-31T00:27:27;97696.47;;;4.85;67.23
35649;BME280;21768;48.562;13.414;2023-01-31T00:29:52;97693.25;;;4.86;67.25
35649;BME280;21768;48.562;13.414;2023-01-31T00:32:17;97688.38;;;4.88;67.17
35649;BME280;21768;48.562;13.414;2023-01-31T00:34:43;97692.50;;;4.87;66.83
35649;BME280;21768;48.562;13.414;2023-01-31T00:37:08;97693.97;;;4.85;66.85
35649;BME280;21768;48.562;13.414;2023-01-31T00:39:34;97704.13;;;4.87;67.05
35649;BME280;21768;48.562;13.414;2023-01-31T00:41:59;97685.00;;;4.87;66.74
35649;BME280;21768;48.562;13.414;2023-01-31T00:44:25;97684.72;;;4.84;66.72
35649;BME280;21768;48.562;13.414;2023-01-31T00:46:50;97687.69;;;4.80;67.09
35649;BME280;21768;48.562;13.414;2023-01-31T00:49:15;97697.38;;;4.77;67.03
35649;BME280;21768;48.562;13.414;2023-01-31T00:51:42;97687.41;;;4.77;66.96
35649;BME280;21768;48.562;13.414;2023-01-31T00:54:08;97693.28;;;4.77;67.27
35649;BME280;21768;48.562;13.414;2023-01-31T00:56:34;97697.38;;;4.77;67.13
35649;BME280;21768;48.562;13.414;2023-01-31T00:58:59;97701.38;;;4.75;67.35
35649;BME280;21768;48.562;13.414;2023-01-31T01:01:27;97704.75;;;4.75;67.06
35649;BME280;21768;48.562;13.414;2023-01-31T01:03:54;97692.09;;;4.74;67.13
35649;BME280;21768;48.562;13.414;2023-01-31T01:06:21;97696.81;;;4.71;67.02
35649;BME280;21768;48.562;13.414;2023-01-31T01:08:47;97697.44;;;4.68;67.38
35649;BME280;21768;48.562;13.414;2023-01-31T01:13:40;97703.44;;;4.70;67.89
35649;BME280;21768;48.562;13.414;2023-01-31T01:16:08;97707.09;;;4.74;68.03
35649;BME280;21768;48.562;13.414;2023-01-31T01:18:34;97703.88;;;4.75;67.78
35649;BME280;21768;48.562;13.414;2023-01-31T01:21:12;97717.59;;;4.70;67.85
35649;BME280;21768;48.562;13.414;2023-01-31T01:23:39;97703.44;;;4.70;67.99
35649;BME280;21768;48.562;13.414;2023-01-31T01:26:05;97707.44;;;4.68;68.13
35649;BME280;21768;48.562;13.414;2023-01-31T01:28:36;97702.31;;;4.67;68.13
35649;BME280;21768;48.562;13.414;2023-01-31T01:31:06;97704.06;;;4.68;67.80
35649;BME280;21768;48.562;13.414;2023-01-31T01:33:32;97700.09;;;4.70;67.88
35649;BME280;21768;48.562;13.414;2023-01-31T01:36:05;97700.09;;;4.70;68.46
35649;BME280;21768;48.562;13.414;2023-01-31T01:38:33;97696.81;;;4.71;67.93
35649;BME280;21768;48.562;13.414;2023-01-31T01:40:59;97697.69;;;4.71;67.89
35649;BME280;21768;48.562;13.414;2023-01-31T01:46:12;97692.31;;;4.67;67.59
35649;BME280;21768;48.562;13.414;2023-01-31T01:48:40;97694.81;;;4.67;67.78
35649;BME280;21768;48.562;13.414;2023-01-31T01:51:06;97695.69;;;4.67;67.26
35649;BME280;21768;48.562;13.414;2023-01-31T01:53:35;97703.34;;;4.69;67.32
35649;BME280;21768;48.562;13.414;2023-01-31T01:56:08;97697.59;;;4.70;66.85
35649;BME280;21768;48.562;13.414;2023-01-31T01:58:54;97697.44;;;4.68;67.10
35649;BME280;21768;48.562;13.414;2023-01-31T02:01:21;97708.31;;;4.69;66.85
35649;BME280;21768;48.562;13.414;2023-01-31T02:03:50;97716.56;;;4.68;66.92
35649;BME280;21768;48.562;13.414;2023-01-31T02:06:17;97705.09;;;4.70;67.02
35649;BME280;21768;48.562;13.414;2023-01-31T02:08:42;97713.44;;;4.70;67.04
35649;BME280;21768;48.562;13.414;2023-01-31T02:11:26;97707.84;;;4.73;67.03
35649;BME280;21768;48.562;13.414;2023-01-31T02:14:18;97710.53;;;4.66;66.72
35649;BME280;21768;48.562;13.414;2023-01-31T02:16:43;97720.69;;;4.67;66.82
35649;BME280;21768;48.562;13.414;2023-01-31T02:19:32;97726.56;;;4.68;66.93
35649;BME280;21768;48.562;13.414;2023-01-31T02:22:25;97715.09;;;4.70;67.13
35649;BME280;21768;48.562;13.414;2023-01-31T02:33:30;97728.31;;;4.69;67.08
35649;BME280;21768;48.562;13.414;2023-01-31T02:38:45;97731.81;;;4.71;66.81
35649;BME280;21768;48.562;13.414;2023-01-31T02:44:09;97728.56;;;4.72;66.47
35649;BME280;21768;48.562;13.414;2023-01-31T02:47:00;97733.13;;;4.76;66.50
35649;BME280;21768;48.562;13.414;2023-01-31T02:49:40;97728.13;;;4.76;66.16
35649;BME280;21768;48.562;13.414;2023-01-31T02:52:34;97711.38;;;4.75;66.26
35649;BME280;21768;48.562;13.414;2023-01-31T02:57:52;97740.19;;;4.71;66.19
35649;BME280;21768;48.562;13.414;2023-01-31T03:00:21;97744.06;;;4.68;65.98
35649;BME280;21768;48.562;13.414;2023-01-31T03:02:47;97753.03;;;4.66;66.00
35649;BME280;21768;48.562;13.414;2023-01-31T03:05:16;97759.91;;;4.68;66.36
35649;BME280;21768;48.562;13.414;2023-01-31T03:07:46;97772.81;;;4.73;66.37
35649;BME280;21768;48.562;13.414;2023-01-31T03:10:19;97777.22;;;4.75;66.27
35649;BME280;21768;48.562;13.414;2023-01-31T03:12:56;97777.38;;;4.77;66.35
35649;BME280;21768;48.562;13.414;2023-01-31T03:15:36;97785.88;;;4.79;66.12
35649;BME280;21768;48.562;13.414;2023-01-31T03:18:27;97783.09;;;4.76;66.15
35649;BME280;21768;48.562;13.414;2023-01-31T03:21:06;97792.06;;;4.74;66.47
35649;BME280;21768;48.562;13.414;2023-01-31T03:23:34;97783.84;;;4.75;65.95
35649;BME280;21768;48.562;13.414;2023-01-31T03:26:04;97790.00;;;4.78;65.96
35649;BME280;21768;48.562;13.414;2023-01-31T03:28:32;97788.38;;;4.79;66.17
35649;BME280;21768;48.562;13.414;2023-01-31T03:31:13;97785.75;;;4.77;66.12
35649;BME280;21768;48.562;13.414;2023-01-31T03:33:46;97794.13;;;4.78;66.10
35649;BME280;21768;48.562;13.414;2023-01-31T03:36:37;97794.13;;;4.78;66.21
35649;BME280;21768;48.562;13.414;2023-01-31T03:41:57;97792.66;;;4.80;66.17
35649;BME280;21768;48.562;13.414;2023-01-31T03:47:15;97787.81;;;4.73;65.69
35649;BME280;21768;48.562;13.414;2023-01-31T03:49:44;97798.53;;;4.72;65.72
35649;BME280;21768;48.562;13.414;2023-01-31T03:52:12;97797.06;;;4.74;65.91
35649;BME280;21768;48.562;13.414;2023-01-31T03:54:46;97789.16;;;4.69;65.49
35649;BME280;21768;48.562;13.414;2023-01-31T03:57:23;97815.31;;;4.73;65.65
35649;BME280;21768;48.562;13.414;2023-01-31T03:59:51;97807.81;;;4.73;65.95
35649;BME280;21768;48.562;13.414;2023-01-31T04:02:20;97811.03;;;4.72;65.63
35649;BME280;21768;48.562;13.414;2023-01-31T04:04:54;97823.97;;;4.76;65.38
35649;BME280;21768;48.562;13.414;2023-01-31T04:07:21;97826.31;;;4.75;65.42
35649;BME280;21768;48.562;13.414;2023-01-31T04:09:47;97833.53;;;4.72;65.27
35649;BME280;21768;48.562;13.414;2023-01-31T04:12:13;97842.06;;;4.74;65.26
35649;BME280;21768;48.562;13.414;2023-01-31T04:14:39;97847.06;;;4.74;65.26
35649;BME280;21768;48.562;13.414;2023-01-31T04:17:04;97843.09;;;4.76;65.32
35649;BME280;21768;48.562;13.414;2023-01-31T04:19:30;97847.63;;;4.80;65.16
35649;BME280;21768;48.562;13.414;2023-01-31T04:21:55;97863.50;;;4.81;65.10
35649;BME280;21768;48.562;13.414;2023-01-31T04:24:21;97858.38;;;4.79;65.12
35649;BME280;21768;48.562;13.414;2023-01-31T04:26:47;97858.50;;;4.81;65.13
35649;BME280;21768;48.562;13.414;2023-01-31T04:29:12;97863.22;;;4.77;64.95
35649;BME280;21768;48.562;13.414;2023-01-31T04:31:38;97848.81;;;4.75;65.17
35649;BME280;21768;48.562;13.414;2023-01-31T04:34:04;97863.81;;;4.75;65.26
35649;BME280;21768;48.562;13.414;2023-01-31T04:36:29;97855.56;;;4.76;65.14
35649;BME280;21768;48.562;13.414;2023-01-31T04:38:55;97852.06;;;4.74;65.05
35649;BME280;21768;48.562;13.414;2023-01-31T04:41:20;97862.94;;;4.74;65.69
35649;BME280;21768;48.562;13.414;2023-01-31T04:43:46;97862.94;;;4.74;65.42
35649;BME280;21768;48.562;13.414;2023-01-31T04:46:11;97869.69;;;4.75;65.12
35649;BME280;21768;48.562;13.414;2023-01-31T04:48:36;97860.28;;;4.73;65.00
35649;BME280;21768;48.562;13.414;2023-01-31T04:51:04;97866.75;;;4.71;65.32
35649;BME280;21768;48.562;13.414;2023-01-31T04:53:29;97868.25;;;4.69;65.95
35649;BME280;21768;48.562;13.414;2023-01-31T04:55:55;97877.22;;;4.67;65.87
35649;BME280;21768;48.562;13.414;2023-01-31T04:58:21;97864.72;;;4.67;65.55
35649;BME280;21768;48.562;13.414;2023-01-31T05:00:46;97878.84;;;4.66;66.01
35649;BME280;21768;48.562;13.414;2023-01-31T05:03:12;97882.97;;;4.66;65.79
35649;BME280;21768;48.562;13.414;2023-01-31T05:05:37;97882.97;;;4.66;65.76
35649;BME280;21768;48.562;13.414;2023-01-31T05:08:03;97889.72;;;4.67;65.54
35649;BME280;21768;48.562;13.414;2023-01-31T05:10:28;97890.00;;;4.70;65.71
35649;BME280;21768;48.562;13.414;2023-01-31T05:12:53;97891.00;;;4.72;65.36
35649;BME280;21768;48.562;13.414;2023-01-31T05:15:19;97901.75;;;4.71;65.42
35649;BME280;21768;48.562;13.414;2023-01-31T05:17:53;97887.50;;;4.70;65.17
35649;BME280;21768;48.562;13.414;2023-01-31T05:20:36;97891.75;;;4.71;65.33
35649;BME280;21768;48.562;13.414;2023-01-31T05:23:04;97894.13;;;4.69;65.21
35649;BME280;21768;48.562;13.414;2023-01-31T05:25:29;97898.97;;;4.68;64.97
35649;BME280;21768;48.562;13.414;2023-01-31T05:27:55;97901.47;;;4.68;65.20
35649;BME280;21768;48.562;13.414;2023-01-31T05:30:21;97900.31;;;4.64;65.23
35649;BME280;21768;48.562;13.414;2023-01-31T05:32:48;97904.41;;;4.64;65.31
35649;BME280;21768;48.562;13.414;2023-01-31T05:35:15;97900.00;;;4.61;65.33
35649;BME280;21768;48.562;13.414;2023-01-31T05:37:40;97901.78;;;4.62;65.26
35649;BME280;21768;48.562;13.414;2023-01-31T05:40:15;97901.19;;;4.65;64.93
35649;BME280;21768;48.562;13.414;2023-01-31T05:42:41;97904.72;;;4.67;65.15
35649;BME280;21768;48.562;13.414;2023-01-31T05:45:08;97895.84;;;4.70;65.07
35649;BME280;21768;48.562;13.414;2023-01-31T05:47:34;97885.59;;;4.67;64.83
35649;BME280;21768;48.562;13.414;2023-01-31T05:49:59;97881.19;;;4.65;64.84
35649;BME280;21768;48.562;13.414;2023-01-31T05:52:26;97887.06;;;4.65;64.96
35649;BME280;21768;48.562;13.414;2023-01-31T05:54:51;97890.88;;;4.62;64.64
35649;BME280;21768;48.562;13.414;2023-01-31T05:57:17;97894.13;;;4.61;64.84
35649;BME280;21768;48.562;13.414;2023-01-31T05:59:42;97899.84;;;4.60;64.45
35649;BME280;21768;48.562;13.414;2023-01-31T06:02:08;97897.34;;;4.60;64.42
35649;BME280;21768;48.562;13.414;2023-01-31T06:04:36;97908.09;;;4.59;64.33
35649;BME280;21768;48.562;13.414;2023-01-31T06:07:02;97912.78;;;4.56;64.30
35649;BME280;21768;48.562;13.414;2023-01-31T06:09:27;97927.94;;;4.57;64.55
35649;BME280;21768;48.562;13.414;2023-01-31T06:11:53;97917.78;;;4.56;64.57
35649;BME280;21768;48.562;13.414;2023-01-31T06:14:18;97926.59;;;4.61;64.62
35649;BME280;21768;48.562;13.414;2023-01-31T06:16:43;97929.09;;;4.61;64.55
35649;BME280;21768;48.562;13.414;2023-01-31T06:19:09;97921.59;;;4.61;64.58
35649;BME280;21768;48.562;13.414;2023-01-31T06:21:34;97922.34;;;4.60;64.09
35649;BME280;21768;48.562;13.414;2023-01-31T06:24:00;97917.66;;;4.63;65.49
35649;BME280;21768;48.562;13.414;2023-01-31T06:26:25;97928.97;;;4.68;64.84
35649;BME280;21768;48.562;13.414;2023-01-31T06:28:51;97933.50;;;4.72;64.20
35649;BME280;21768;48.562;13.414;2023-01-31T06:31:17;97916.47;;;4.68;63.71
35649;BME280;21768;48.562;13.414;2023-01-31T06:33:42;97930.59;;;4.67;63.44
35649;BME280;21768;48.562;13.414;2023-01-31T06:36:08;97934.09;;;4.61;63.72
35649;BME280;21768;48.562;13.414;2023-01-31T06:38:33;97948.78;;;4.58;64.08
35649;BME280;21768;48.562;13.414;2023-01-31T06:40:58;97942.03;;;4.57;63.94
35649;BME280;21768;48.562;13.414;2023-01-31T06:43:24;97950.25;;;4.56;64.12
35649;BME280;21768;48.562;13.414;2023-01-31T06:45:49;97956.28;;;4.58;64.02
35649;BME280;21768;48.562;13.414;2023-01-31T06:48:15;97956.59;;;4.61;63.86
35649;BME280;21768;48.562;13.414;2023-01-31T06:50:41;97962.47;;;4.61;63.91
35649;BME280;21768;48.562;13.414;2023-01-31T06:53:06;97970.84;;;4.62;64.07
35649;BME280;21768;48.562;13.414;2023-01-31T06:55:32;97959.97;;;4.61;63.71
35649;BME280;21768;48.562;13.414;2023-01-31T06:57:57;97964.53;;;4.57;64.05
35649;BME280;21768;48.562;13.414;2023-01-31T07:00:23;97966.88;;;4.55;64.13
35649;BME280;21768;48.562;13.414;2023-01-31T07:02:52;97967.59;;;4.54;63.98
35649;BME280;21768;48.562;13.414;2023-01-31T07:05:18;97969.94;;;4.53;64.08
35649;BME280;21768;48.562;13.414;2023-01-31T07:07:45;97967.59;;;4.54;63.82
35649;BME280;21768;48.562;13.414;2023-01-31T07:10:11;97979.66;;;4.50;63.80
35649;BME280;21768;48.562;13.414;2023-01-31T07:12:37;97978.47;;;4.46;63.96
35649;BME280;21768;48.562;13.414;2023-01-31T07:15:02;97974.34;;;4.47;64.12
35649;BME280;21768;48.562;13.414;2023-01-31T07:17:28;97989.63;;;4.50;63.84
35649;BME280;21768;48.562;13.414;2023-01-31T07:19:53;97979.94;;;4.53;63.69
35649;BME280;21768;48.562;13.414;2023-01-31T07:22:18;97977.72;;;4.47;64.13
35649;BME280;21768;48.562;13.414;2023-01-31T07:24:44;97983.31;;;4.53;64.26
35649;BME280;21768;48.562;13.414;2023-01-31T07:27:12;97988.03;;;4.59;64.11
35649;BME280;21768;48.562;13.414;2023-01-31T07:29:37;97995.53;;;4.59;63.95
35649;BME280;21768;48.562;13.414;2023-01-31T07:32:03;97978.50;;;4.63;63.83
35649;BME280;21768;48.562;13.414;2023-01-31T07:34:29;97982.03;;;4.65;63.98
35649;BME280;21768;48.562;13.414;2023-01-31T07:36:55;97988.63;;;4.65;63.74
35649;BME280;21768;48.562;13.414;2023-01-31T07:39:20;97978.50;;;4.63;63.68
35649;BME280;21768;48.562;13.414;2023-01-31T07:41:45;97995.09;;;4.63;64.00
35649;BME280;21768;48.562;13.414;2023-01-31T07:44:11;97999.53;;;4.65;63.73
35649;BME280;21768;48.562;13.414;2023-01-31T07:46:36;98002.91;;;4.66;63.82
35649;BME280;21768;48.562;13.414;2023-01-31T07:49:02;97994.19;;;4.71;63.46
35649;BME280;21768;48.562;13.414;2023-01-31T07:51:28;98013.19;;;4.69;63.50
35649;BME280;21768;48.562;13.414;2023-01-31T07:53:53;98006.69;;;4.71;63.45
35649;BME280;21768;48.562;13.414;2023-01-31T07:56:19;98017.47;;;4.70;63.28
35649;BME280;21768;48.562;13.414;2023-01-31T07:58:46;98010.22;;;4.73;63.15
35649;BME280;21768;48.562;13.414;2023-01-31T08:01:18;98017.91;;;4.66;63.36
35649;BME280;21768;48.562;13.414;2023-01-31T08:04:03;98036.69;;;4.71;63.30
35649;BME280;21768;48.562;13.414;2023-01-31T08:06:29;98027.72;;;4.73;63.59
35649;BME280;21768;48.562;13.414;2023-01-31T08:08:56;98019.97;;;4.70;63.20
35649;BME280;21768;48.562;13.414;2023-01-31T08:11:22;98031.13;;;4.65;63.62
35649;BME280;21768;48.562;13.414;2023-01-31T08:13:47;98032.88;;;4.66;63.47
35649;BME280;21768;48.562;13.414;2023-01-31T08:16:13;98030.25;;;4.64;63.41
35649;BME280;21768;48.562;13.414;2023-01-31T08:18:38;98029.50;;;4.65;63.28
35649;BME280;21768;48.562;13.414;2023-01-31T08:21:04;98032.88;;;4.66;63.49
35649;BME280;21768;48.562;13.414;2023-01-31T08:23:31;98039.63;;;4.75;63.63
35649;BME280;21768;48.562;13.414;2023-01-31T08:26:05;98031.28;;;4.84;63.06
35649;BME280;21768;48.562;13.414;2023-01-31T08:28:32;98034.06;;;4.95;63.01
35649;BME280;21768;48.562;13.414;2023-01-31T08:30:58;98036.41;;;5.02;62.55
35649;BME280;21768;48.562;13.414;2023-01-31T08:33:24;98048.78;;;5.01;62.50
35649;BME280;21768;48.562;13.414;2023-01-31T08:35:49;98040.84;;;5.05;62.38
35649;BME280;21768;48.562;13.414;2023-01-31T08:38:15;98033.03;;;5.10;62.54
35649;BME280;21768;48.562;13.414;2023-01-31T08:40:40;98032.91;;;5.18;61.96
35649;BME280;21768;48.562;13.414;2023-01-31T08:43:07;98032.59;;;5.15;62.20
35649;BME280;21768;48.562;13.414;2023-01-31T08:45:32;98036.44;;;5.11;62.05
35649;BME280;21768;48.562;13.414;2023-01-31T08:47:59;98033.03;;;5.10;62.18
35649;BME280;21768;48.562;13.414;2023-01-31T08:50:27;98028.16;;;5.21;61.58
35649;BME280;21768;48.562;13.414;2023-01-31T08:55:19;98048.19;;;5.29;61.92
35649;BME280;21768;48.562;13.414;2023-01-31T08:57:44;98052.59;;;5.40;61.98
35649;BME280;21768;48.562;13.414;2023-01-31T09:00:11;98049.75;;;5.55;61.43
35649;BME280;21768;48.562;13.414;2023-01-31T09:02:36;98050.63;;;5.55;61.40
35649;BME280;21768;48.562;13.414;2023-01-31T09:05:01;98052.25;;;5.63;60.58
35649;BME280;21768;48.562;13.414;2023-01-31T09:07:27;98059.19;;;5.57;60.92
35649;BME280;21768;48.562;13.414;2023-01-31T09:09:52;98049.75;;;5.55;60.69
35649;BME280;21768;48.562;13.414;2023-01-31T09:12:17;98049.50;;;5.43;61.11
35649;BME280;21768;48.562;13.414;2023-01-31T09:14:43;98052.59;;;5.40;61.08
35649;BME280;21768;48.562;13.414;2023-01-31T09:17:08;98054.50;;;5.43;61.23
35649;BME280;21768;48.562;13.414;2023-01-31T09:19:35;98054.94;;;5.39;60.67
35649;BME280;21768;48.562;13.414;2023-01-31T09:22:00;98052.44;;;5.30;61.20
35649;BME280;21768;48.562;13.414;2023-01-31T09:24:26;98047.00;;;5.34;61.51
35649;BME280;21768;48.562;13.414;2023-01-31T09:26:51;98051.56;;;5.38;61.14
35649;BME280;21768;48.562;13.414;2023-01-31T09:29:19;98056.28;;;5.44;61.05
35649;BME280;21768;48.562;13.414;2023-01-31T09:31:44;98066.28;;;5.44;61.03
35649;BME280;21768;48.562;13.414;2023-01-31T09:34:11;98054.03;;;5.47;60.70
35649;BME280;21768;48.562;13.414;2023-01-31T09:36:38;98062.28;;;5.55;60.79
35649;BME280;21768;48.562;13.414;2023-01-31T09:39:03;98068.44;;;5.67;60.91
35649;BME280;21768;48.562;13.414;2023-01-31T09:41:37;98071.38;;;5.89;60.53
35649;BME280;21768;48.562;13.414;2023-01-31T09:44:16;98066.91;;;5.95;59.56
35649;BME280;21768;48.562;13.414;2023-01-31T09:46:49;98072.66;;;5.85;59.57
35649;BME280;21768;48.562;13.414;2023-01-31T09:49:31;98066.09;;;5.68;60.11
35649;BME280;21768;48.562;13.414;2023-01-31T09:52:02;98073.72;;;5.70;59.79
35649;BME280;21768;48.562;13.414;2023-01-31T09:54:34;98068.75;;;5.61;60.56
35649;BME280;21768;48.562;13.414;2023-01-31T09:57:25;98070.50;;;5.54;59.89
35649;BME280;21768;48.562;13.414;2023-01-31T10:00:38;98065.81;;;5.48;60.40
35649;BME280;21768;48.562;13.414;2023-01-31T10:05:41;98048.72;;;5.61;60.34
35649;BME280;21768;48.562;13.414;2023-01-31T10:10:57;98058.97;;;5.81;59.74
35649;BME280;21768;48.562;13.414;2023-01-31T10:16:05;98053.09;;;5.90;59.77
35649;BME280;21768;48.562;13.414;2023-01-31T10:18:41;98048.03;;;5.98;60.08
35649;BME280;21768;48.562;13.414;2023-01-31T10:21:12;98043.16;;;6.00;59.58
35649;BME280;21768;48.562;13.414;2023-01-31T10:26:29;98030.34;;;6.05;59.12
35649;BME280;21768;48.562;13.414;2023-01-31T10:29:04;98040.22;;;6.04;59.01
35649;BME280;21768;48.562;13.414;2023-01-31T10:31:39;98038.63;;;5.96;58.44
35649;BME280;21768;48.562;13.414;2023-01-31T10:34:16;98031.59;;;5.92;58.60
35649;BME280;21768;48.562;13.414;2023-01-31T10:36:51;98019.16;;;6.02;57.89
35649;BME280;21768;48.562;13.414;2023-01-31T10:39:53;98009.56;;;6.06;57.22
35649;BME280;21768;48.562;13.414;2023-01-31T10:42:28;98005.13;;;6.12;57.70
35649;BME280;21768;48.562;13.414;2023-01-31T10:47:31;97996.63;;;6.29;56.62
35649;BME280;21768;48.562;13.414;2023-01-31T10:49:57;97997.75;;;6.41;57.02
35649;BME280;21768;48.562;13.414;2023-01-31T10:55:08;97984.06;;;6.75;56.26
35649;BME280;21768;48.562;13.414;2023-01-31T10:57:37;97981.78;;;6.87;54.98
35649;BME280;21768;48.562;13.414;2023-01-31T11:00:03;97972.00;;;6.90;54.69
35649;BME280;21768;48.562;13.414;2023-01-31T11:02:29;97977.25;;;6.93;55.57
35649;BME280;21768;48.562;13.414;2023-01-31T11:04:57;97970.13;;;6.88;55.00
35649;BME280;21768;48.562;13.414;2023-01-31T11:07:27;97966.50;;;6.75;55.02
35649;BME280;21768;48.562;13.414;2023-01-31T11:09:53;97973.38;;;6.68;54.45
35649;BME280;21768;48.562;13.414;2023-01-31T11:12:20;97966.06;;;6.61;54.83
35649;BME280;21768;48.562;13.414;2023-01-31T11:15:06;97972.28;;;6.56;54.39
35649;BME280;21768;48.562;13.414;2023-01-31T11:17:35;97967.38;;;6.38;54.70
35649;BME280;21768;48.562;13.414;2023-01-31T11:20:01;97964.03;;;6.29;55.87
35649;BME280;21768;48.562;13.414;2023-01-31T11:22:31;97959.50;;;6.25;54.78
35649;BME280;21768;48.562;13.414;2023-01-31T11:24:58;97970.72;;;6.20;55.37
35649;BME280;21768;48.562;13.414;2023-01-31T11:27:32;97971.06;;;6.14;55.46
35649;BME280;21768;48.562;13.414;2023-01-31T11:30:01;97965.34;;;6.07;54.99
35649;BME280;21768;48.562;13.414;2023-01-31T11:32:30;97955.06;;;6.04;55.50
35649;BME280;21768;48.562;13.414;2023-01-31T11:35:43;97962.28;;;6.01;54.25
35649;BME280;21768;48.562;13.414;2023-01-31T11:45:21;97964.84;;;5.92;54.23
35649;BME280;21768;48.562;13.414;2023-01-31T11:47:56;97959.03;;;6.02;54.50
35649;BME280;21768;48.562;13.414;2023-01-31T11:50:23;97943.81;;;6.18;54.16
35649;BME280;21768;48.562;13.414;2023-01-31T11:53:42;97937.16;;;6.18;53.77
35649;BME280;21768;48.562;13.414;2023-01-31T11:55:48;97922.53;;;6.23;53.07
35649;BME280;21768;48.562;13.414;2023-01-31T11:58:31;97911.16;;;6.26;53.33
35649;BME280;21768;48.562;13.414;2023-01-31T12:01:00;97917.88;;;6.36;52.68
35649;BME280;21768;48.562;13.414;2023-01-31T12:03:27;97913.75;;;6.36;52.47
35649;BME280;21768;48.562;13.414;2023-01-31T12:06:05;97913.41;;;6.42;51.90
35649;BME280;21768;48.562;13.414;2023-01-31T12:08:39;97896.75;;;6.42;52.23
35649;BME280;21768;48.562;13.414;2023-01-31T12:11:21;97897.41;;;6.50;51.51
35649;BME280;21768;48.562;13.414;2023-01-31T12:13:51;97880.00;;;6.52;51.67
35649;BME280;21768;48.562;13.414;2023-01-31T12:16:22;97879.25;;;6.53;51.66
35649;BME280;21768;48.562;13.414;2023-01-31T12:21:43;97873.97;;;6.49;51.50
35649;BME280;21768;48.562;13.414;2023-01-31T12:35:29;97897.41;;;6.50;51.56
35649;BME280;21768;48.562;13.414;2023-01-31T12:40:36;97889.16;;;6.51;51.71
35649;BME280;21768;48.562;13.414;2023-01-31T12:43:11;97889.75;;;6.48;51.36
35649;BME280;21768;48.562;13.414;2023-01-31T12:46:00;97896.34;;;6.38;51.90
35649;BME280;21768;48.562;13.414;2023-01-31T12:54:05;97879.47;;;6.08;51.18
35649;BME280;21768;48.562;13.414;2023-01-31T12:57:03;97880.66;;;6.03;51.67
35649;BME280;21768;48.562;13.414;2023-01-31T13:02:33;97873.34;;;5.96;52.08
35649;BME280;21768;48.562;13.414;2023-01-31T13:07:52;97878.09;;;5.93;52.06
35649;BME280;21768;48.562;13.414;2023-01-31T13:10:26;97873.19;;;5.94;52.16
35649;BME280;21768;48.562;13.414;2023-01-31T13:12:54;97866.31;;;5.92;52.03
35649;BME280;21768;48.562;13.414;2023-01-31T13:15:41;97864.25;;;5.88;52.70
35649;BME280;21768;48.562;13.414;2023-01-31T13:18:10;97855.72;;;5.86;52.75
35649;BME280;21768;48.562;13.414;2023-01-31T13:20:47;97858.34;;;5.87;52.89
35649;BME280;21768;48.562;13.414;2023-01-31T13:23:29;97855.44;;;5.91;53.05
35649;BME280;21768;48.562;13.414;2023-01-31T13:26:13;97850.81;;;5.96;52.84
35649;BME280;21768;48.562;13.414;2023-01-31T13:28:47;97855.81;;;5.96;53.03
35649;BME280;21768;48.562;13.414;2023-01-31T13:31:26;97852.69;;;5.98;52.87
35649;BME280;21768;48.562;13.414;2023-01-31T13:33:59;97855.34;;;6.00;52.70
35649;BME280;21768;48.562;13.414;2023-01-31T13:36:32;97859.44;;;6.08;52.81
35649;BME280;21768;48.562;13.414;2023-01-31T13:39:02;97859.38;;;6.17;53.16
35649;BME280;21768;48.562;13.414;2023-01-31T13:41:32;97860.84;;;6.14;52.53
35649;BME280;21768;48.562;13.414;2023-01-31T13:44:00;97860.16;;;6.07;53.07
35649;BME280;21768;48.562;13.414;2023-01-31T13:46:44;97855.28;;;6.08;52.87
35649;BME280;21768;48.562;13.414;2023-01-31T13:51:48;97847.03;;;6.09;53.01
35649;BME280;21768;48.562;13.414;2023-01-31T13:56:57;97841.53;;;6.32;52.47
35649;BME280;21768;48.562;13.414;2023-01-31T13:59:27;97841.81;;;6.35;52.36
35649;BME280;21768;48.562;13.414;2023-01-31T14:01:55;97857.88;;;6.37;52.37
35649;BME280;21768;48.562;13.414;2023-01-31T14:04:26;97851.56;;;6.32;52.85
35649;BME280;21768;48.562;13.414;2023-01-31T14:09:29;97831.25;;;6.29;52.59
35649;BME280;21768;48.562;13.414;2023-01-31T14:11:57;97825.91;;;6.35;52.87
35649;BME280;21768;48.562;13.414;2023-01-31T14:14:44;97824.81;;;6.41;52.96
35649;BME280;21768;48.562;13.414;2023-01-31T14:17:57;97820.41;;;6.39;53.03
35649;BME280;21768;48.562;13.414;2023-01-31T14:20:01;97810.66;;;6.42;52.45
35649;BME280;21768;48.562;13.414;2023-01-31T14:22:28;97805.53;;;6.40;52.46
35649;BME280;21768;48.562;13.414;2023-01-31T14:30:21;97805.75;;;6.43;52.46
35649;BME280;21768;48.562;13.414;2023-01-31T14:47:11;97790.63;;;6.23;52.25
35649;BME280;21768;48.562;13.414;2023-01-31T14:52:59;97783.88;;;6.03;52.28
35649;BME280;21768;48.562;13.414;2023-01-31T14:58:22;97784.47;;;6.01;52.86
35649;BME280;21768;48.562;13.414;2023-01-31T15:00:59;97785.22;;;6.00;53.10
35649;BME280;21768;48.562;13.414;2023-01-31T15:03:37;97790.69;;;5.96;52.83
35649;BME280;21768;48.562;13.414;2023-01-31T15:08:38;97796.47;;;5.95;53.14
35649;BME280;21768;48.562;13.414;2023-01-31T15:11:11;97798.22;;;5.96;53.34